Time;durP1;ratioP1;P1;durP2;ratioP2;P2;SDS_P1;SDS_P2;PMS_P1;PMS_P2;Temp;Humidity;BMP_temperature;BMP_pressure;BME280_temperature;BME280_humidity;BME280_pressure;Samples;Min_cycle;Max_cycle;Signal;HPM_P1;HPM_P2
2022/11/11 00:01:43;;;;;;;38.15;18.23;;;;;;;;;;6244943;23;20395;-88
2022/11/11 00:04:28;;;;;;;35.20;16.80;;;;;;;;;;6266161;22;20023;-88
2022/11/11 00:07:11;;;;;;;35.70;18.00;;;;;;;;;;6244289;23;20023;-87
2022/11/11 00:09:55;;;;;;;37.50;17.90;;;;;;;;;;6265472;22;20073;-87
2022/11/11 00:12:39;;;;;;;39.78;17.90;;;;;;;;;;6244316;23;20027;-87
2022/11/11 00:15:23;;;;;;;30.70;16.48;;;;;;;;;;6243936;23;20026;-87
2022/11/11 00:27:26;;;;;;;38.25;17.25;;;;;;;;;;6263426;22;20019;-88
2022/11/11 00:30:10;;;;;;;35.42;17.40;;;;;;;;;;6265566;22;20023;-87
2022/11/11 00:32:54;;;;;;;33.03;15.60;;;;;;;;;;6244521;23;20525;-89
2022/11/11 00:35:53;;;;;;;42.97;19.88;;;;;;;;;;6243617;23;20039;-87
2022/11/11 00:38:48;;;;;;;39.65;18.58;;;;;;;;;;6242892;23;20060;-87
2022/11/11 00:41:32;;;;;;;39.33;19.38;;;;;;;;;;6243366;23;20073;-87
2022/11/11 00:44:16;;;;;;;40.47;18.58;;;;;;;;;;6265769;22;20103;-87
2022/11/11 00:53:13;;;;;;;34.00;17.40;;;;;;;;;;6261004;22;20073;-88
2022/11/11 00:55:58;;;;;;;34.80;17.58;;;;;;;;;;6243940;23;20027;-87
2022/11/11 00:58:42;;;;;;;34.75;18.17;;;;;;;;;;6246500;22;20031;-87
2022/11/11 01:01:26;;;;;;;34.20;16.45;;;;;;;;;;6245732;23;20054;-87
2022/11/11 01:04:10;;;;;;;32.58;16.55;;;;;;;;;;6266658;22;20019;-88
2022/11/11 01:06:54;;;;;;;31.05;16.25;;;;;;;;;;6246977;23;20512;-86
2022/11/11 01:09:37;;;;;;;33.33;16.38;;;;;;;;;;6246874;23;20074;-87
2022/11/11 01:12:21;;;;;;;30.60;14.95;;;;;;;;;;6245363;23;20063;-87
2022/11/11 01:15:05;;;;;;;33.40;16.67;;;;;;;;;;6245221;23;20022;-88
2022/11/11 01:17:50;;;;;;;35.80;15.98;;;;;;;;;;6267349;22;20351;-87
2022/11/11 01:20:35;;;;;;;32.83;16.02;;;;;;;;;;6246117;23;20340;-88
2022/11/11 01:23:20;;;;;;;32.50;17.33;;;;;;;;;;6266392;22;20118;-88
2022/11/11 01:26:09;;;;;;;33.08;15.10;;;;;;;;;;6267951;22;20509;-87
2022/11/11 01:28:54;;;;;;;32.25;16.13;;;;;;;;;;6266516;22;20019;-87
2022/11/11 01:31:38;;;;;;;32.15;16.98;;;;;;;;;;6245951;23;20102;-86
2022/11/11 01:34:21;;;;;;;31.35;15.23;;;;;;;;;;6245435;23;20400;-87
2022/11/11 01:37:06;;;;;;;38.00;19.38;;;;;;;;;;6266765;22;20023;-87
2022/11/11 01:39:50;;;;;;;32.08;17.30;;;;;;;;;;6244456;23;20127;-87
2022/11/11 01:42:50;;;;;;;34.25;18.60;;;;;;;;;;6266480;22;20089;-87
2022/11/11 01:45:47;;;;;;;31.92;16.35;;;;;;;;;;6245127;23;20023;-88
2022/11/11 01:52:01;;;;;;;34.55;16.73;;;;;;;;;;6245802;23;20071;-87
2022/11/11 01:54:53;;;;;;;34.88;17.83;;;;;;;;;;6246040;23;20051;-87
2022/11/11 01:57:40;;;;;;;28.73;15.95;;;;;;;;;;6268881;22;20023;-89
2022/11/11 02:00:24;;;;;;;34.33;18.15;;;;;;;;;;6267429;22;20050;-88
2022/11/11 02:03:08;;;;;;;32.38;17.58;;;;;;;;;;6246026;23;20035;-88
2022/11/11 02:05:55;;;;;;;30.67;17.05;;;;;;;;;;6245517;23;20034;-85
2022/11/11 02:08:39;;;;;;;31.95;16.27;;;;;;;;;;6245767;23;20019;-88
2022/11/11 02:14:35;;;;;;;31.38;17.05;;;;;;;;;;6263287;22;20514;-88
2022/11/11 02:17:19;;;;;;;33.67;16.48;;;;;;;;;;6245497;23;20070;-87
2022/11/11 02:20:03;;;;;;;31.90;16.98;;;;;;;;;;6245067;23;20026;-88
2022/11/11 02:22:48;;;;;;;30.63;16.67;;;;;;;;;;6266390;22;20119;-88
2022/11/11 02:25:32;;;;;;;31.85;18.33;;;;;;;;;;6267043;22;20558;-87
2022/11/11 02:28:16;;;;;;;30.35;16.90;;;;;;;;;;6244832;23;20467;-88
2022/11/11 02:31:00;;;;;;;35.45;17.23;;;;;;;;;;6244576;23;20084;-87
2022/11/11 02:33:44;;;;;;;34.22;17.40;;;;;;;;;;6244890;23;20022;-87
2022/11/11 02:36:28;;;;;;;30.00;16.50;;;;;;;;;;6267186;22;20031;-87
2022/11/11 02:39:12;;;;;;;35.38;17.10;;;;;;;;;;6244488;23;20073;-87
2022/11/11 02:41:56;;;;;;;32.28;16.45;;;;;;;;;;6266535;22;20356;-87
2022/11/11 02:44:40;;;;;;;31.83;16.95;;;;;;;;;;6244413;23;20411;-87
2022/11/11 02:47:24;;;;;;;38.05;17.83;;;;;;;;;;6244643;23;20370;-87
2022/11/11 02:50:08;;;;;;;38.58;17.98;;;;;;;;;;6244318;23;20026;-87
2022/11/11 02:52:52;;;;;;;34.42;17.95;;;;;;;;;;6243842;23;20051;-88
2022/11/11 02:55:36;;;;;;;37.90;20.00;;;;;;;;;;6264903;22;20027;-89
2022/11/11 02:58:20;;;;;;;32.05;17.75;;;;;;;;;;6266392;22;20023;-87
2022/11/11 03:01:04;;;;;;;32.03;14.63;;;;;;;;;;6245217;23;20078;-87
2022/11/11 03:03:49;;;;;;;40.65;19.17;;;;;;;;;;6266779;22;20131;-88
2022/11/11 03:06:33;;;;;;;34.42;17.98;;;;;;;;;;6244375;23;20123;-87
2022/11/11 03:09:17;;;;;;;36.60;18.70;;;;;;;;;;6266620;22;20375;-86
2022/11/11 03:12:01;;;;;;;37.75;18.17;;;;;;;;;;6243596;23;20073;-88
2022/11/11 03:14:45;;;;;;;52.95;20.55;;;;;;;;;;6266365;22;20078;-87
2022/11/11 03:17:38;;;;;;;35.70;18.30;;;;;;;;;;6246078;23;20078;-88
2022/11/11 03:23:25;;;;;;;39.17;18.15;;;;;;;;;;6262492;22;20022;-87
2022/11/11 03:26:12;;;;;;;57.13;20.77;;;;;;;;;;6244922;23;20019;-87
2022/11/11 03:28:56;;;;;;;40.50;19.08;;;;;;;;;;6244581;23;20023;-88
2022/11/11 03:31:43;;;;;;;48.92;19.02;;;;;;;;;;6245430;23;20089;-88
2022/11/11 03:34:27;;;;;;;42.22;18.60;;;;;;;;;;6245028;23;20026;-90
2022/11/11 03:40:13;;;;;;;43.75;19.42;;;;;;;;;;6262843;22;20089;-87
2022/11/11 03:42:57;;;;;;;41.08;17.73;;;;;;;;;;6265020;22;20113;-88
2022/11/11 03:45:42;;;;;;;39.55;18.85;;;;;;;;;;6244405;23;20340;-88
2022/11/11 03:48:27;;;;;;;44.58;19.80;;;;;;;;;;6266620;22;20467;-86
2022/11/11 03:51:11;;;;;;;59.72;19.83;;;;;;;;;;6265783;22;20027;-87
2022/11/11 03:53:55;;;;;;;40.65;18.23;;;;;;;;;;6245305;23;20027;-89
2022/11/11 03:56:39;;;;;;;50.28;19.95;;;;;;;;;;6266361;22;20058;-88
2022/11/11 03:59:23;;;;;;;55.38;19.92;;;;;;;;;;6265482;22;20081;-88
2022/11/11 04:11:21;;;;;;;44.38;18.67;;;;;;;;;;6262356;22;20097;-87
2022/11/11 04:17:09;;;;;;;42.55;17.83;;;;;;;;;;6263887;22;20069;-89
2022/11/11 04:22:56;;;;;;;36.42;17.95;;;;;;;;;;6263655;22;20085;-90
2022/11/11 04:25:49;;;;;;;43.15;17.42;;;;;;;;;;6268444;22;20115;-89
2022/11/11 04:32:34;;;;;;;42.15;17.90;;;;;;;;;;6265553;22;20085;-87
2022/11/11 04:34:41;;;;;;;34.33;18.02;;;;;;;;;;6265344;22;20055;-87
2022/11/11 04:37:25;;;;;;;34.05;16.30;;;;;;;;;;6267573;22;20085;-88
2022/11/11 04:43:12;;;;;;;37.90;17.38;;;;;;;;;;6263964;22;20019;-89
2022/11/11 04:45:59;;;;;;;38.88;18.55;;;;;;;;;;6247405;23;20020;-90
2022/11/11 04:48:43;;;;;;;;;;;;;;;;;;6267181;22;20093;-87
2022/11/11 04:52:25;;;;;;;31.90;16.08;;;;;;;;;;6244583;23;20406;-86
2022/11/11 04:56:46;;;;;;;32.92;15.75;;;;;;;;;;6262361;22;20027;-83
2022/11/11 04:57:40;;;;;;;33.42;16.45;;;;;;;;;;6246413;23;20509;-90
2022/11/11 05:00:24;;;;;;;44.47;20.17;;;;;;;;;;6266401;22;20360;-88
2022/11/11 05:03:14;;;;;;;33.00;16.55;;;;;;;;;;6245458;23;20411;-89
2022/11/11 05:09:03;;;;;;;34.95;16.98;;;;;;;;;;6263542;22;20127;-89
2022/11/11 05:11:47;;;;;;;35.03;16.15;;;;;;;;;;6246541;23;20031;-86
2022/11/11 05:26:43;;;;;;;36.65;17.52;;;;;;;;;;6245940;23;20103;-87
2022/11/11 05:29:27;;;;;;;45.53;17.33;;;;;;;;;;6267458;22;20018;-88
2022/11/11 05:32:11;;;;;;;38.05;17.10;;;;;;;;;;6245496;23;20026;-85
2022/11/11 05:34:55;;;;;;;38.55;17.50;;;;;;;;;;6265457;22;20099;-84
2022/11/11 05:37:39;;;;;;;45.03;18.63;;;;;;;;;;6243108;23;20078;-84
2022/11/11 05:40:23;;;;;;;38.03;18.20;;;;;;;;;;6244909;23;20356;-85
2022/11/11 05:43:07;;;;;;;39.38;18.42;;;;;;;;;;6266016;22;20069;-88
2022/11/11 05:45:51;;;;;;;39.35;17.70;;;;;;;;;;6246451;23;20023;-88
2022/11/11 05:49:13;;;;;;;43.25;18.38;;;;;;;;;;6266714;22;20459;-89
2022/11/11 05:51:39;;;;;;;47.88;19.15;;;;;;;;;;6246222;23;20027;-88
2022/11/11 05:54:23;;;;;;;39.10;18.70;;;;;;;;;;6266250;22;20023;-89
2022/11/11 05:57:07;;;;;;;39.40;18.63;;;;;;;;;;6243767;22;20077;-88
2022/11/11 05:59:51;;;;;;;35.00;17.35;;;;;;;;;;6243290;23;20034;-89
2022/11/11 06:02:36;;;;;;;39.92;18.70;;;;;;;;;;6245246;23;20062;-88
2022/11/11 06:05:21;;;;;;;47.88;19.15;;;;;;;;;;6243835;23;20419;-88
2022/11/11 06:08:05;;;;;;;42.65;18.73;;;;;;;;;;6266072;22;20520;-89
2022/11/11 06:10:50;;;;;;;43.65;18.48;;;;;;;;;;6244729;23;20076;-89
2022/11/11 06:13:35;;;;;;;61.17;19.20;;;;;;;;;;6264626;22;20074;-89
2022/11/11 06:16:19;;;;;;;45.92;19.60;;;;;;;;;;6244760;23;20027;-88
2022/11/11 06:19:03;;;;;;;38.42;19.33;;;;;;;;;;6264040;22;20027;-89
2022/11/11 06:21:56;;;;;;;35.90;18.00;;;;;;;;;;6243732;23;20106;-89
2022/11/11 06:24:40;;;;;;;46.13;18.05;;;;;;;;;;6264895;22;20475;-89
2022/11/11 06:27:24;;;;;;;55.65;19.13;;;;;;;;;;6245141;23;20051;-88
2022/11/11 06:30:08;;;;;;;47.00;18.70;;;;;;;;;;6265430;22;20105;-88
2022/11/11 06:32:53;;;;;;;39.70;18.90;;;;;;;;;;6265129;22;20022;-88
2022/11/11 06:35:38;;;;;;;53.75;20.30;;;;;;;;;;6264277;22;20363;-88
2022/11/11 06:38:23;;;;;;;46.58;19.70;;;;;;;;;;6244435;23;20512;-88
2022/11/11 06:41:09;;;;;;;41.95;19.75;;;;;;;;;;6244927;23;20019;-90
2022/11/11 06:43:52;;;;;;;40.72;18.83;;;;;;;;;;6264235;22;20392;-89
2022/11/11 06:46:36;;;;;;;37.55;18.08;;;;;;;;;;6264316;22;20077;-90
2022/11/11 06:49:21;;;;;;;42.30;19.00;;;;;;;;;;6265227;22;20074;-88
2022/11/11 06:52:05;;;;;;;57.25;19.48;;;;;;;;;;6264960;22;20027;-89
2022/11/11 06:54:49;;;;;;;44.92;18.42;;;;;;;;;;6265793;22;20074;-90
2022/11/11 06:57:33;;;;;;;54.55;19.85;;;;;;;;;;6264473;22;20348;-90
2022/11/11 07:00:18;;;;;;;39.38;18.55;;;;;;;;;;6264534;22;20123;-91
2022/11/11 07:03:02;;;;;;;46.50;19.17;;;;;;;;;;6265033;22;20065;-90
2022/11/11 07:05:47;;;;;;;42.03;18.85;;;;;;;;;;6265204;22;20018;-90
2022/11/11 07:08:30;;;;;;;41.72;18.70;;;;;;;;;;6264501;22;20344;-90
2022/11/11 07:11:15;;;;;;;43.60;19.45;;;;;;;;;;6265621;22;20470;-90
2022/11/11 07:13:59;;;;;;;42.25;19.15;;;;;;;;;;6265179;22;20026;-90
2022/11/11 07:16:43;;;;;;;44.97;19.00;;;;;;;;;;6265828;22;20026;-90
2022/11/11 07:19:27;;;;;;;39.70;18.55;;;;;;;;;;6241693;23;20027;-88
2022/11/11 07:22:10;;;;;;;38.92;17.83;;;;;;;;;;6265476;22;20023;-89
2022/11/11 07:24:54;;;;;;;48.03;18.48;;;;;;;;;;6265438;22;20528;-89
2022/11/11 07:27:38;;;;;;;52.92;18.23;;;;;;;;;;6265151;22;20223;-89
2022/11/11 07:30:22;;;;;;;38.30;17.98;;;;;;;;;;6266464;22;20111;-91
2022/11/11 07:33:06;;;;;;;40.22;18.45;;;;;;;;;;6243946;23;20027;-90
2022/11/11 07:35:50;;;;;;;43.17;18.00;;;;;;;;;;6265058;22;20023;-90
2022/11/11 07:38:34;;;;;;;46.25;19.42;;;;;;;;;;6265748;22;20352;-90
2022/11/11 07:41:18;;;;;;;41.25;19.10;;;;;;;;;;6264149;22;20099;-90
2022/11/11 07:44:02;;;;;;;37.25;17.02;;;;;;;;;;6264491;22;20019;-90
2022/11/11 07:46:46;;;;;;;43.65;18.63;;;;;;;;;;6264171;22;20019;-89
2022/11/11 07:49:30;;;;;;;33.95;17.45;;;;;;;;;;6264143;22;20470;-89
2022/11/11 07:52:14;;;;;;;34.80;18.10;;;;;;;;;;6263272;22;20074;-89
2022/11/11 07:54:58;;;;;;;37.30;17.75;;;;;;;;;;6265169;22;20474;-88
2022/11/11 07:57:42;;;;;;;40.65;18.38;;;;;;;;;;6263511;22;20070;-89
2022/11/11 08:00:26;;;;;;;38.00;19.15;;;;;;;;;;6241728;23;20046;-89
2022/11/11 08:03:09;;;;;;;35.95;17.23;;;;;;;;;;6242854;23;20022;-90
2022/11/11 08:05:56;;;;;;;37.78;18.13;;;;;;;;;;6264356;22;20019;-89
2022/11/11 08:08:40;;;;;;;32.42;16.92;;;;;;;;;;6266558;22;20019;-89
2022/11/11 08:14:27;;;;;;;35.60;16.23;;;;;;;;;;6263587;22;20027;-88
2022/11/11 08:17:11;;;;;;;40.45;18.20;;;;;;;;;;6245020;23;20154;-88
2022/11/11 08:19:55;;;;;;;31.90;17.25;;;;;;;;;;6266644;22;20138;-88
2022/11/11 08:22:40;;;;;;;33.13;16.95;;;;;;;;;;6245324;23;20525;-90
2022/11/11 08:25:24;;;;;;;33.47;16.98;;;;;;;;;;6266800;22;20038;-88
2022/11/11 08:28:08;;;;;;;28.48;15.80;;;;;;;;;;6265837;22;20019;-91
2022/11/11 08:30:52;;;;;;;24.63;14.15;;;;;;;;;;6266938;22;20078;-90
2022/11/11 08:33:36;;;;;;;25.58;15.07;;;;;;;;;;6268361;22;20086;-90
2022/11/11 08:36:22;;;;;;;26.60;14.63;;;;;;;;;;6267403;22;20085;-89
2022/11/11 08:39:06;;;;;;;28.33;14.52;;;;;;;;;;6267740;22;20051;-89
2022/11/11 08:41:50;;;;;;;24.77;13.73;;;;;;;;;;6246185;23;20491;-90
2022/11/11 08:44:34;;;;;;;28.58;14.40;;;;;;;;;;6266541;22;20047;-90
2022/11/11 08:47:19;;;;;;;25.48;14.88;;;;;;;;;;6266382;22;20022;-89
2022/11/11 08:50:04;;;;;;;24.10;13.75;;;;;;;;;;6266238;22;20018;-90
2022/11/11 08:52:49;;;;;;;23.63;12.50;;;;;;;;;;6265305;22;20494;-89
2022/11/11 08:55:34;;;;;;;22.25;13.05;;;;;;;;;;6265565;22;20080;-90
2022/11/11 08:58:21;;;;;;;21.65;14.20;;;;;;;;;;6264891;22;20027;-90
2022/11/11 09:01:09;;;;;;;18.10;12.15;;;;;;;;;;6264254;22;20030;-90
2022/11/11 09:03:53;;;;;;;21.90;12.50;;;;;;;;;;6244604;23;20074;-88
2022/11/11 09:06:38;;;;;;;19.42;12.40;;;;;;;;;;6245531;23;20022;-90
2022/11/11 09:09:22;;;;;;;18.95;12.07;;;;;;;;;;6267607;22;20072;-88
2022/11/11 09:12:07;;;;;;;19.08;11.75;;;;;;;;;;6268007;22;20026;-90
2022/11/11 09:14:51;;;;;;;15.65;11.60;;;;;;;;;;6244821;23;20023;-89
2022/11/11 09:17:34;;;;;;;18.30;11.48;;;;;;;;;;6267367;22;20112;-88
2022/11/11 09:20:19;;;;;;;17.70;11.27;;;;;;;;;;6245381;23;20027;-89
2022/11/11 09:23:03;;;;;;;15.20;10.35;;;;;;;;;;6267235;22;20023;-89
2022/11/11 09:25:47;;;;;;;14.90;10.10;;;;;;;;;;6246317;23;20027;-90
2022/11/11 09:28:32;;;;;;;14.65;10.32;;;;;;;;;;6266441;22;20145;-89
2022/11/11 09:31:17;;;;;;;17.33;10.60;;;;;;;;;;6266909;22;20077;-89
2022/11/11 09:34:01;;;;;;;13.75;9.68;;;;;;;;;;6244712;23;20023;-88
2022/11/11 09:36:45;;;;;;;13.20;8.85;;;;;;;;;;6244402;23;20158;-89
2022/11/11 09:39:30;;;;;;;12.88;8.77;;;;;;;;;;6245329;23;20031;-90
2022/11/11 09:42:22;;;;;;;11.88;8.57;;;;;;;;;;6267293;22;20023;-88
2022/11/11 09:45:25;;;;;;;11.93;8.82;;;;;;;;;;6266884;22;20138;-89
2022/11/11 09:48:18;;;;;;;11.55;8.68;;;;;;;;;;6245474;23;20082;-89
2022/11/11 09:51:02;;;;;;;11.95;8.18;;;;;;;;;;6245791;23;20023;-90
2022/11/11 09:53:48;;;;;;;12.07;8.82;;;;;;;;;;6266199;22;20022;-89
2022/11/11 09:56:35;;;;;;;10.85;8.30;;;;;;;;;;6266397;22;20023;-90
2022/11/11 09:59:29;;;;;;;12.95;8.75;;;;;;;;;;6245740;22;20077;-89
2022/11/11 10:02:18;;;;;;;11.70;7.95;;;;;;;;;;6265981;22;20108;-90
2022/11/11 10:05:04;;;;;;;11.27;8.13;;;;;;;;;;6266724;22;20471;-89
2022/11/11 10:07:56;;;;;;;12.70;8.45;;;;;;;;;;6266916;22;20466;-88
2022/11/11 10:10:47;;;;;;;12.18;8.10;;;;;;;;;;6265219;22;20170;-91
2022/11/11 10:13:35;;;;;;;10.05;7.82;;;;;;;;;;6242993;23;20187;-90
2022/11/11 10:16:19;;;;;;;10.27;7.97;;;;;;;;;;6264542;22;20027;-89
2022/11/11 10:19:12;;;;;;;10.57;7.63;;;;;;;;;;6245376;23;20026;-88
2022/11/11 10:21:57;;;;;;;10.98;8.13;;;;;;;;;;6242646;23;20038;-90
2022/11/11 10:24:42;;;;;;;10.32;8.38;;;;;;;;;;6244156;23;20399;-91
2022/11/11 10:27:25;;;;;;;11.02;7.93;;;;;;;;;;6242757;23;20074;-89
2022/11/11 10:30:21;;;;;;;12.48;8.38;;;;;;;;;;6265017;22;20086;-90
2022/11/11 10:33:12;;;;;;;10.57;7.75;;;;;;;;;;6266024;22;20474;-89
2022/11/11 10:35:56;;;;;;;12.20;8.75;;;;;;;;;;6265567;22;20408;-90
2022/11/11 10:38:59;;;;;;;11.07;8.10;;;;;;;;;;6266904;22;20062;-88
2022/11/11 10:41:46;;;;;;;12.00;8.88;;;;;;;;;;6264620;22;20047;-89
2022/11/11 10:44:31;;;;;;;11.70;8.77;;;;;;;;;;6265349;22;20020;-88
2022/11/11 10:47:18;;;;;;;10.00;7.80;;;;;;;;;;6264799;22;20089;-88
2022/11/11 10:50:02;;;;;;;11.43;8.02;;;;;;;;;;6265342;22;20475;-90
2022/11/11 10:52:59;;;;;;;10.50;8.25;;;;;;;;;;6243959;23;20066;-90
2022/11/11 10:55:43;;;;;;;;;;;;;;;;;;6265146;22;20065;-88
2022/11/11 10:58:36;;;;;;;13.52;7.85;;;;;;;;;;6243155;22;20276;-91
2022/11/11 11:01:40;;;;;;;11.38;8.20;;;;;;;;;;6265419;22;20451;-89
2022/11/11 11:04:24;;;;;;;11.23;7.90;;;;;;;;;;6265131;22;20023;-89
2022/11/11 11:07:08;;;;;;;9.43;7.40;;;;;;;;;;6244392;23;20440;-89
2022/11/11 11:10:04;;;;;;;9.50;7.28;;;;;;;;;;6265607;22;20023;-88
2022/11/11 11:12:54;;;;;;;9.20;6.75;;;;;;;;;;6264996;22;20023;-89
2022/11/11 11:15:39;;;;;;;10.82;7.65;;;;;;;;;;6265812;22;20066;-89
2022/11/11 11:18:23;;;;;;;9.90;7.72;;;;;;;;;;6264133;22;20027;-88
2022/11/11 11:21:07;;;;;;;11.18;7.43;;;;;;;;;;6264146;22;20066;-89
2022/11/11 11:23:51;;;;;;;9.73;6.95;;;;;;;;;;6265055;22;20113;-90
2022/11/11 11:26:42;;;;;;;9.00;6.75;;;;;;;;;;6264055;22;20073;-90
2022/11/11 11:29:27;;;;;;;8.82;6.22;;;;;;;;;;6242736;23;20115;-89
2022/11/11 11:32:18;;;;;;;8.00;6.10;;;;;;;;;;6264969;22;20072;-89
2022/11/11 11:35:02;;;;;;;8.05;6.28;;;;;;;;;;6266077;22;20030;-91
2022/11/11 11:37:50;;;;;;;9.05;6.88;;;;;;;;;;6264419;22;20066;-89
2022/11/11 11:40:44;;;;;;;10.10;6.68;;;;;;;;;;6241883;23;20059;-89
2022/11/11 11:43:33;;;;;;;9.32;6.38;;;;;;;;;;6264877;22;20391;-90
2022/11/11 11:46:36;;;;;;;9.43;6.50;;;;;;;;;;6263515;22;20098;-88
2022/11/11 11:49:38;;;;;;;11.88;6.95;;;;;;;;;;6244057;23;20077;-89
2022/11/11 11:52:41;;;;;;;8.27;6.35;;;;;;;;;;6244018;23;20027;-89
2022/11/11 11:55:30;;;;;;;9.25;6.50;;;;;;;;;;6245379;23;20027;-90
2022/11/11 11:58:23;;;;;;;9.00;6.32;;;;;;;;;;6245800;22;20023;-90
2022/11/11 12:01:08;;;;;;;8.90;5.88;;;;;;;;;;6265910;22;20073;-89
2022/11/11 12:04:10;;;;;;;9.82;6.43;;;;;;;;;;6246869;23;20494;-89
2022/11/11 12:06:59;;;;;;;9.02;6.18;;;;;;;;;;6244176;23;20023;-89
2022/11/11 12:09:46;;;;;;;8.63;6.38;;;;;;;;;;6242888;23;20476;-89
2022/11/11 12:12:33;;;;;;;9.27;5.95;;;;;;;;;;6243250;23;20058;-89
2022/11/11 12:15:30;;;;;;;9.65;6.15;;;;;;;;;;6241546;23;20030;-90
2022/11/11 12:18:23;;;;;;;10.53;6.60;;;;;;;;;;6263966;22;20028;-89
2022/11/11 12:21:16;;;;;;;11.15;6.38;;;;;;;;;;6242711;23;20023;-88
2022/11/11 12:24:20;;;;;;;10.50;7.00;;;;;;;;;;6265824;22;20019;-92
2022/11/11 12:27:05;;;;;;;12.65;7.55;;;;;;;;;;6265229;22;20614;-90
2022/11/11 12:30:01;;;;;;;12.32;7.85;;;;;;;;;;6242463;23;20023;-89
2022/11/11 12:32:48;;;;;;;10.70;6.30;;;;;;;;;;6244146;23;20360;-89
2022/11/11 12:35:46;;;;;;;13.75;7.75;;;;;;;;;;6242925;23;20070;-89
2022/11/11 12:38:49;;;;;;;12.30;7.47;;;;;;;;;;6245187;23;20095;-89
2022/11/11 12:41:48;;;;;;;11.93;7.63;;;;;;;;;;6244755;23;20039;-89
2022/11/11 12:44:35;;;;;;;13.15;7.72;;;;;;;;;;6244178;23;20070;-90
2022/11/11 12:47:31;;;;;;;10.07;6.55;;;;;;;;;;6244882;23;20390;-88
2022/11/11 12:50:27;;;;;;;11.75;7.43;;;;;;;;;;6265818;22;20019;-89
2022/11/11 12:53:14;;;;;;;11.38;6.88;;;;;;;;;;6267173;22;20399;-89
2022/11/11 12:56:17;;;;;;;11.18;6.40;;;;;;;;;;6246487;23;20070;-89
2022/11/11 12:59:14;;;;;;;11.70;7.20;;;;;;;;;;6244509;23;20467;-90
2022/11/11 13:02:01;;;;;;;10.13;7.20;;;;;;;;;;6264799;22;20132;-91
2022/11/11 13:04:52;;;;;;;9.48;6.65;;;;;;;;;;6244057;23;20097;-89
2022/11/11 13:07:44;;;;;;;9.52;6.50;;;;;;;;;;6263931;22;20457;-89
2022/11/11 13:10:38;;;;;;;10.30;7.03;;;;;;;;;;6264407;22;20023;-89
2022/11/11 13:13:34;;;;;;;10.45;6.82;;;;;;;;;;6263995;22;20026;-90
2022/11/11 13:16:20;;;;;;;9.20;5.53;;;;;;;;;;6243087;23;20051;-88
2022/11/11 13:19:06;;;;;;;9.07;5.82;;;;;;;;;;6265238;22;20043;-89
2022/11/11 13:21:51;;;;;;;8.40;5.90;;;;;;;;;;6265333;22;20042;-88
2022/11/11 13:24:35;;;;;;;7.78;5.32;;;;;;;;;;6263733;22;20107;-89
2022/11/11 13:27:23;;;;;;;11.52;5.38;;;;;;;;;;6263981;22;20022;-88
2022/11/11 13:30:37;;;;;;;9.90;5.63;;;;;;;;;;6241537;23;20027;-88
2022/11/11 13:33:21;;;;;;;8.27;5.53;;;;;;;;;;6152263;23;20023;-88
2022/11/11 13:36:06;;;;;;;10.80;6.10;;;;;;;;;;6265757;22;20019;-89
2022/11/11 13:38:51;;;;;;;9.48;6.35;;;;;;;;;;6265585;22;20399;-88
2022/11/11 13:41:36;;;;;;;8.98;6.03;;;;;;;;;;6265538;22;20023;-89
2022/11/11 13:44:22;;;;;;;8.40;5.38;;;;;;;;;;6266375;22;20070;-90
2022/11/11 13:47:06;;;;;;;11.23;6.38;;;;;;;;;;6265811;22;20022;-88
2022/11/11 13:49:52;;;;;;;9.50;6.00;;;;;;;;;;6265302;22;20019;-89
2022/11/11 13:52:36;;;;;;;10.38;6.30;;;;;;;;;;6266917;22;20134;-88
2022/11/11 13:55:41;;;;;;;10.75;6.93;;;;;;;;;;6267324;22;20026;-89
2022/11/11 13:58:26;;;;;;;9.83;6.77;;;;;;;;;;6185871;22;1345203;-88
2022/11/11 14:01:10;;;;;;;14.68;7.20;;;;;;;;;;6267466;22;20026;-89
2022/11/11 14:03:58;;;;;;;9.40;6.32;;;;;;;;;;6266484;22;20339;-89
2022/11/11 14:06:49;;;;;;;9.23;6.22;;;;;;;;;;6266817;22;20023;-89
2022/11/11 14:09:53;;;;;;;13.43;6.50;;;;;;;;;;6267951;22;20019;-89
2022/11/11 14:12:38;;;;;;;9.05;6.50;;;;;;;;;;6245436;23;20300;-89
2022/11/11 14:15:35;;;;;;;10.88;6.57;;;;;;;;;;6266104;22;20082;-90
2022/11/11 14:18:19;;;;;;;16.05;6.20;;;;;;;;;;6265863;22;20103;-90
2022/11/11 14:21:03;;;;;;;10.80;6.43;;;;;;;;;;6244512;23;20022;-89
2022/11/11 14:23:51;;;;;;;12.40;6.53;;;;;;;;;;6266689;22;20086;-89
2022/11/11 14:26:36;;;;;;;10.48;6.25;;;;;;;;;;6265952;22;20019;-89
2022/11/11 14:29:33;;;;;;;7.95;5.57;;;;;;;;;;6266943;22;20073;-89
2022/11/11 14:32:21;;;;;;;12.70;6.75;;;;;;;;;;6267358;22;20081;-89
2022/11/11 14:35:23;;;;;;;13.05;6.88;;;;;;;;;;6266461;22;20106;-89
2022/11/11 14:38:14;;;;;;;9.88;6.63;;;;;;;;;;6245254;23;20030;-87
2022/11/11 14:41:18;;;;;;;9.13;6.30;;;;;;;;;;6266250;22;20042;-89
2022/11/11 14:44:21;;;;;;;10.02;6.53;;;;;;;;;;6244741;23;20462;-89
2022/11/11 14:47:05;;;;;;;10.50;7.18;;;;;;;;;;6246081;23;20023;-88
2022/11/11 14:49:52;;;;;;;9.40;6.40;;;;;;;;;;6246936;23;20066;-90
2022/11/11 14:52:39;;;;;;;8.50;6.15;;;;;;;;;;6266877;22;20073;-90
2022/11/11 14:55:27;;;;;;;10.70;6.22;;;;;;;;;;6266723;22;20030;-89
2022/11/11 14:58:19;;;;;;;10.23;6.43;;;;;;;;;;6265223;22;20510;-88
2022/11/11 15:01:11;;;;;;;8.27;6.70;;;;;;;;;;6265517;22;20031;-88
2022/11/11 15:03:55;;;;;;;8.88;6.30;;;;;;;;;;6265742;22;20356;-88
2022/11/11 15:06:46;;;;;;;10.20;6.65;;;;;;;;;;6265889;22;20076;-91
2022/11/11 15:09:37;;;;;;;9.25;6.65;;;;;;;;;;6265285;22;20019;-89
2022/11/11 15:12:20;;;;;;;9.50;6.97;;;;;;;;;;6244618;23;20027;-90
2022/11/11 15:15:11;;;;;;;9.75;5.95;;;;;;;;;;6245050;23;20363;-89
2022/11/11 15:18:05;;;;;;;10.45;6.72;;;;;;;;;;6245190;23;20099;-89
2022/11/11 15:20:58;;;;;;;9.20;5.88;;;;;;;;;;6266545;22;20352;-90
2022/11/11 15:23:46;;;;;;;9.23;5.78;;;;;;;;;;6265778;22;20058;-90
2022/11/11 15:26:48;;;;;;;9.93;5.82;;;;;;;;;;6265835;22;20051;-89
2022/11/11 15:30:01;;;;;;;11.32;6.57;;;;;;;;;;6246160;23;20102;-89
2022/11/11 15:33:04;;;;;;;8.10;5.50;;;;;;;;;;6237639;22;20019;-90
2022/11/11 15:35:54;;;;;;;7.70;5.10;;;;;;;;;;6245734;23;20022;-89
2022/11/11 15:38:38;;;;;;;9.43;5.65;;;;;;;;;;6246101;23;20088;-89
2022/11/11 15:41:26;;;;;;;8.25;5.47;;;;;;;;;;6265959;22;20023;-89
2022/11/11 15:44:21;;;;;;;8.95;5.95;;;;;;;;;;6267016;22;20363;-89
2022/11/11 15:47:05;;;;;;;10.43;6.25;;;;;;;;;;6243919;23;20067;-91
2022/11/11 15:49:49;;;;;;;7.25;5.78;;;;;;;;;;6245440;23;20081;-88
2022/11/11 15:52:34;;;;;;;7.90;5.22;;;;;;;;;;6265625;22;20023;-89
2022/11/11 15:55:20;;;;;;;9.20;5.80;;;;;;;;;;6245724;23;20031;-90
2022/11/11 15:58:10;;;;;;;7.75;5.05;;;;;;;;;;6246879;23;20050;-89
2022/11/11 16:00:57;;;;;;;6.68;4.75;;;;;;;;;;6244675;23;20031;-90
2022/11/11 16:03:41;;;;;;;;;;;;;;;;;;6244979;23;20403;-89
2022/11/11 16:06:25;;;;;;;8.70;5.25;;;;;;;;;;6246413;23;19945;-90
2022/11/11 16:09:10;;;;;;;6.65;4.93;;;;;;;;;;6244360;23;20031;-90
2022/11/11 16:11:55;;;;;;;7.35;5.10;;;;;;;;;;6245940;23;20042;-89
2022/11/11 16:14:40;;;;;;;6.10;4.72;;;;;;;;;;6244583;23;20023;-88
2022/11/11 16:17:24;;;;;;;7.93;4.82;;;;;;;;;;6245766;23;20027;-89
2022/11/11 16:20:15;;;;;;;6.55;4.75;;;;;;;;;;6246677;23;20026;-90
2022/11/11 16:22:59;;;;;;;5.57;4.18;;;;;;;;;;6245774;23;20019;-87
2022/11/11 16:25:45;;;;;;;6.45;4.53;;;;;;;;;;6245577;23;20109;-90
2022/11/11 16:28:30;;;;;;;5.35;4.20;;;;;;;;;;6224166;23;20065;-90
2022/11/11 16:31:33;;;;;;;6.25;4.30;;;;;;;;;;6225574;23;20463;-89
2022/11/11 16:34:26;;;;;;;6.28;4.25;;;;;;;;;;6247655;23;20086;-90
2022/11/11 16:37:12;;;;;;;6.80;4.35;;;;;;;;;;6225595;23;20070;-87
2022/11/11 16:40:16;;;;;;;6.20;4.22;;;;;;;;;;6225177;23;20023;-90
2022/11/11 16:43:19;;;;;;;7.05;4.20;;;;;;;;;;6246941;23;20058;-90
2022/11/11 16:46:04;;;;;;;5.05;3.83;;;;;;;;;;6224878;23;20028;-90
2022/11/11 16:48:49;;;;;;;7.75;4.75;;;;;;;;;;6224839;23;20022;-88
2022/11/11 16:51:40;;;;;;;6.78;4.30;;;;;;;;;;6224877;23;20521;-89
2022/11/11 16:54:26;;;;;;;7.40;4.47;;;;;;;;;;6224971;23;20022;-89
2022/11/11 16:57:09;;;;;;;5.82;4.28;;;;;;;;;;6224705;23;20090;-89
2022/11/11 16:59:54;;;;;;;7.47;4.28;;;;;;;;;;6269458;22;20034;-88
2022/11/11 17:02:38;;;;;;;9.18;4.30;;;;;;;;;;6276617;22;20405;-90
2022/11/11 17:05:42;;;;;;;5.38;4.03;;;;;;;;;;6276551;22;20082;-90
2022/11/11 17:08:30;;;;;;;6.88;4.28;;;;;;;;;;6277954;22;20019;-90
2022/11/11 17:11:33;;;;;;;7.85;4.93;;;;;;;;;;6277657;22;20030;-90
2022/11/11 17:14:17;;;;;;;8.13;4.70;;;;;;;;;;6279176;22;20026;-89
2022/11/11 17:17:01;;;;;;;8.27;5.35;;;;;;;;;;6275946;22;20089;-90
2022/11/11 17:19:45;;;;;;;7.10;5.30;;;;;;;;;;6276909;22;20073;-90
2022/11/11 17:22:29;;;;;;;8.27;5.50;;;;;;;;;;6276128;22;20088;-90
2022/11/11 17:25:13;;;;;;;7.28;5.72;;;;;;;;;;6275888;22;20069;-90
2022/11/11 17:27:58;;;;;;;8.60;5.65;;;;;;;;;;6275813;22;20119;-88
2022/11/11 17:30:42;;;;;;;9.30;5.90;;;;;;;;;;6276055;22;20030;-82
2022/11/11 17:33:26;;;;;;;7.55;5.60;;;;;;;;;;6275975;22;20102;-82
2022/11/11 17:36:10;;;;;;;8.40;5.75;;;;;;;;;;6274506;22;20030;-83